Startpagina
METAR-TAF:

METAR-TAF

Vliegvelden :

Internationale Luchthaven Antwerpen

Antwerpen, België

breedte: 51-12N, lengte: 004-28E, hoogte: 12 m

Actueel weer

Dit bericht is 18 minuten geleden gemaakt, om 22:20 UTC
Wind 4 kt uit het zuidwesten
Temperatuur 19°C
Vochtigheid 94%
Druk 1016 hPa
Zicht 10 km of meer

METAR: EBAW 192220Z AUTO 23004KT 9999 // VV/// 19/18 Q1016

Tijdstip: 00:38 (22:38 UTC)

Verwachting

Dit bericht is 2 uur en het 38 minuten geleden gemaakt, om 20:00 UTC
Verwachting geldig van 19 om 21 UTC tot 20 om 06 UTC
Wind 5 kt uit het westzuidwesten
Zicht 10 km of meer
Gebroken wolken op 1800 ft
Kans 30% :
Tijdelijke
van 20 om 02 UTC tot 20 om 06 UTC
Zicht: 3000 m
Ondiepe mist, nevel

TAF: EBAW 192000Z 1921/2006 24005KT 9999 BKN018 PROB30 TEMPO 2002/2006 3000 MIFG BR

Waarnemingen en weersverwachtingen van meer dan 4000 vliegvelden (METAR en TAF).

De beschikbare stations zijn de gele en rode punten op de kaart.

Ga met uw muis naar het station om de naam te zien.

Klik dan om waarnemingen en weersverwachtingen te zien.

kaart wijzigen: klik op de groene knoppen met een zwart kruis om in te zoomen, op de groene knop met een streepje om uit te zoomen of op de groene pijlen voor aangrenzende kaarten.


METAR-TAF: